Time;durP1;ratioP1;P1;durP2;ratioP2;P2;SDS_P1;SDS_P2;PMS_P1;PMS_P2;Temp;Humidity;BMP_temperature;BMP_pressure;BME280_temperature;BME280_humidity;BME280_pressure;Samples;Min_cycle;Max_cycle;Signal;HPM_P1;HPM_P2
2020/12/18 00:01:31;;;;;;;25.50;14.73;;;;;;;7.20;62.52;101022.25;4404243;32;35226;-54
2020/12/18 00:03:59;;;;;;;23.90;14.30;;;;;;;7.37;61.63;101030.81;4391928;32;33883;-57
2020/12/18 00:06:32;;;;;;;23.70;13.50;;;;;;;7.32;61.61;101027.37;4403620;32;34790;-56
2020/12/18 00:09:00;;;;;;;27.27;13.95;;;;;;;7.29;61.72;101030.03;4391763;32;33876;-56
2020/12/18 00:11:27;;;;;;;26.65;14.25;;;;;;;7.29;61.65;101035.28;4390744;32;34780;-56
2020/12/18 00:13:55;;;;;;;28.62;15.07;;;;;;;7.25;61.99;101028.31;4402438;32;33303;-55
2020/12/18 00:16:23;;;;;;;28.55;14.87;;;;;;;7.20;62.13;101030.13;4407227;32;34428;-54
2020/12/18 00:18:50;;;;;;;24.95;15.88;;;;;;;7.20;62.18;101035.38;4389634;32;35525;-52
2020/12/18 00:21:19;;;;;;;29.42;15.32;;;;;;;7.34;61.64;101030.84;4406686;32;35299;-52
2020/12/18 00:23:47;;;;;;;25.65;14.45;;;;;;;7.18;61.93;101024.91;4394493;32;33443;-50
2020/12/18 00:26:15;;;;;;;26.23;13.82;;;;;;;6.95;63.14;101033.87;4384496;32;33695;-51
2020/12/18 00:28:42;;;;;;;27.77;16.17;;;;;;;7.03;63.19;101038.19;4403390;32;34726;-51
2020/12/18 00:31:15;;;;;;;24.65;14.30;;;;;;;7.10;62.51;101031.09;4404637;32;34343;-51
2020/12/18 00:33:42;;;;;;;25.12;14.77;;;;;;;7.25;62.28;101035.34;4380576;32;32664;-51
2020/12/18 00:36:11;;;;;;;25.65;15.48;;;;;;;7.37;61.46;101033.47;4391871;32;34463;-50
2020/12/18 00:38:38;;;;;;;25.75;15.45;;;;;;;7.21;61.97;101034.47;4405590;32;34855;-53
2020/12/18 00:41:11;;;;;;;28.10;15.07;;;;;;;7.32;61.98;101042.28;4406506;32;34172;-51
2020/12/18 00:43:39;;;;;;;25.08;13.38;;;;;;;7.51;60.84;101037.69;4388731;32;33213;-50
2020/12/18 00:46:09;;;;;;;24.80;13.55;;;;;;;7.35;60.94;101043.09;4406755;32;33760;-51
2020/12/18 00:48:46;;;;;;;;;;;;;;;7.10;62.19;101049.50;4399130;32;35063;-51
2020/12/18 00:51:16;;;;;;;23.70;14.02;;;;;;;7.01;62.58;101049.56;4400515;32;34431;-51
2020/12/18 00:53:44;;;;;;;29.05;14.70;;;;;;;7.10;62.53;101052.12;4405485;32;33510;-51
2020/12/18 00:56:12;;;;;;;27.92;14.98;;;;;;;7.16;62.24;101046.78;4406523;32;33715;-53
2020/12/18 00:58:44;;;;;;;30.80;16.58;;;;;;;7.03;62.86;101055.72;4405413;32;34755;-51
2020/12/18 01:01:11;;;;;;;27.58;15.90;;;;;;;7.24;61.86;101049.34;4392401;32;34504;-51
2020/12/18 01:03:39;;;;;;;27.45;15.95;;;;;;;7.25;62.19;101049.34;4404566;32;33300;-53
2020/12/18 01:06:11;;;;;;;28.95;14.73;;;;;;;7.26;62.23;101047.56;4408964;32;33543;-51
2020/12/18 01:08:43;;;;;;;27.13;15.10;;;;;;;7.27;61.89;101044.09;4405135;32;35805;-51
2020/12/18 01:11:12;;;;;;;26.27;16.00;;;;;;;7.25;61.96;101045.84;4406986;32;34510;-50
2020/12/18 01:13:39;;;;;;;29.60;15.07;;;;;;;7.22;61.99;101044.13;4394039;32;34236;-50
2020/12/18 01:16:12;;;;;;;26.08;15.68;;;;;;;6.95;62.92;101044.38;4408451;32;34543;-56
2020/12/18 01:18:40;;;;;;;33.30;16.40;;;;;;;6.95;63.39;101041.75;4394105;32;34586;-52
2020/12/18 01:21:22;;;;;;;28.70;16.85;;;;;;;6.80;64.37;101042.78;4406426;32;33318;-52
2020/12/18 01:23:50;;;;;;;29.25;15.88;;;;;;;6.93;64.02;101040.03;4405338;32;34053;-53
2020/12/18 01:26:17;;;;;;;31.17;17.83;;;;;;;6.97;64.13;101034.72;4408529;32;34844;-52
2020/12/18 01:28:44;;;;;;;28.65;16.37;;;;;;;7.04;64.30;101041.69;4396629;32;34757;-51
2020/12/18 01:31:11;;;;;;;28.80;15.85;;;;;;;7.15;63.84;101040.69;4408063;32;34739;-53
2020/12/18 01:33:40;;;;;;;27.98;16.58;;;;;;;7.21;63.77;101038.88;4401709;32;34243;-51
2020/12/18 01:36:08;;;;;;;28.67;16.52;;;;;;;7.35;63.20;101036.97;4405942;32;32851;-53
2020/12/18 01:38:37;;;;;;;29.80;16.40;;;;;;;7.21;63.69;101039.75;4407133;32;34775;-52
2020/12/18 01:41:04;;;;;;;31.58;16.45;;;;;;;7.14;63.97;101043.31;4407331;32;34036;-53
2020/12/18 01:43:32;;;;;;;31.58;16.27;;;;;;;7.43;62.85;101041.25;4390788;32;33261;-53
2020/12/18 01:46:06;;;;;;;30.70;15.82;;;;;;;7.34;62.93;101041.34;4399696;32;34385;-52
2020/12/18 01:48:34;;;;;;;29.52;16.08;;;;;;;7.38;62.86;101042.19;4392024;32;35863;-52
2020/12/18 01:51:02;;;;;;;30.50;16.77;;;;;;;7.29;63.19;101047.56;4391813;32;33842;-53
2020/12/18 01:53:29;;;;;;;28.90;16.05;;;;;;;7.32;63.50;101048.41;4405570;32;34003;-55
2020/12/18 01:55:57;;;;;;;28.38;15.57;;;;;;;6.91;64.48;101054.03;4406144;32;33936;-53
2020/12/18 01:58:26;;;;;;;29.08;16.48;;;;;;;7.22;63.53;101043.25;4406381;32;33276;-52
2020/12/18 02:00:54;;;;;;;30.75;15.35;;;;;;;7.38;63.05;101053.59;4391018;32;34272;-54
2020/12/18 02:03:22;;;;;;;30.37;15.40;;;;;;;7.32;63.24;101039.66;4396010;32;34020;-54
2020/12/18 02:05:51;;;;;;;29.98;16.98;;;;;;;7.54;62.42;101041.13;4385715;32;33598;-55
2020/12/18 02:08:22;;;;;;;30.08;17.17;;;;;;;7.31;62.88;101045.78;4401661;32;35044;-54
2020/12/18 02:10:56;;;;;;;28.50;16.48;;;;;;;7.36;63.02;101047.50;4394912;32;36167;-53
2020/12/18 02:13:27;;;;;;;29.50;16.73;;;;;;;7.35;63.09;101042.22;4405474;32;34136;-56
2020/12/18 02:15:56;;;;;;;31.85;17.67;;;;;;;7.31;63.40;101051.03;4395383;32;34611;-55
2020/12/18 02:18:27;;;;;;;35.50;17.67;;;;;;;7.30;63.46;101044.91;4393930;32;34526;-56
2020/12/18 02:20:54;;;;;;;32.45;18.23;;;;;;;7.50;62.86;101051.69;4406957;32;34130;-57
2020/12/18 02:23:22;;;;;;;31.05;17.95;;;;;;;7.23;63.50;101048.50;4403717;32;33246;-54
2020/12/18 02:26:03;;;;;;;32.97;17.75;;;;;;;7.31;63.56;101051.94;4407342;32;34686;-52
2020/12/18 02:28:31;;;;;;;33.45;18.80;;;;;;;7.37;63.45;101059.72;4394748;32;35823;-56
2020/12/18 02:30:58;;;;;;;31.90;17.62;;;;;;;7.57;62.56;101053.38;4406532;32;33771;-51
2020/12/18 02:33:26;;;;;;;32.45;16.70;;;;;;;7.32;63.48;101063.31;4405419;32;32085;-55
2020/12/18 02:35:54;;;;;;;34.58;18.35;;;;;;;7.37;63.33;101062.34;4396588;32;32370;-51
2020/12/18 02:38:21;;;;;;;34.38;18.62;;;;;;;7.41;63.30;101063.22;4393917;32;35383;-52
2020/12/18 02:40:48;;;;;;;38.65;17.75;;;;;;;7.55;62.87;101061.28;4405099;32;34860;-50
2020/12/18 02:43:24;;;;;;;32.55;17.75;;;;;;;7.37;63.54;101064.13;4405240;32;33308;-52
2020/12/18 02:45:52;;;;;;;33.22;19.27;;;;;;;7.56;63.00;101062.16;4408140;32;33944;-52
2020/12/18 02:48:26;;;;;;;32.33;17.30;;;;;;;7.53;62.93;101064.81;4405100;32;35108;-54
2020/12/18 02:50:57;;;;;;;31.90;17.55;;;;;;;7.72;61.66;101053.19;4379257;32;35119;-54
2020/12/18 02:53:30;;;;;;;32.30;16.80;;;;;;;7.37;63.20;101059.72;4393428;32;33342;-52
2020/12/18 02:55:58;;;;;;;36.15;19.23;;;;;;;7.35;63.45;101055.38;4407211;32;33613;-50
2020/12/18 02:58:28;;;;;;;31.65;16.70;;;;;;;7.33;63.67;101058.03;4406513;32;34485;-49
2020/12/18 03:00:56;;;;;;;30.83;18.00;;;;;;;7.34;63.87;101051.88;4408050;32;34347;-50
2020/12/18 03:03:23;;;;;;;33.90;18.25;;;;;;;7.28;63.97;101057.19;4405886;32;33955;-53
2020/12/18 03:05:53;;;;;;;35.83;18.60;;;;;;;7.39;63.62;101052.69;4392931;32;33574;-52
2020/12/18 03:08:21;;;;;;;31.92;18.40;;;;;;;7.33;63.96;101050.13;4402794;32;35051;-53
2020/12/18 03:10:51;;;;;;;34.35;19.00;;;;;;;7.65;62.89;101046.28;4405684;32;34807;-51
2020/12/18 03:13:21;;;;;;;35.47;19.27;;;;;;;7.53;63.19;101044.66;4406800;32;33439;-50
2020/12/18 03:15:49;;;;;;;34.55;18.05;;;;;;;7.13;64.75;101047.72;4407245;32;33660;-53
2020/12/18 03:18:16;;;;;;;34.17;18.40;;;;;;;7.31;64.24;101046.66;4391317;32;35569;-53
2020/12/18 03:20:44;;;;;;;34.90;17.33;;;;;;;7.30;64.47;101050.16;4393246;32;34355;-50
2020/12/18 03:23:15;;;;;;;39.63;19.80;;;;;;;7.32;64.39;101045.78;4406328;32;31988;-52
2020/12/18 03:25:44;;;;;;;35.72;17.50;;;;;;;7.01;65.69;101052.19;4406814;32;34426;-52
2020/12/18 03:28:16;;;;;;;41.70;17.77;;;;;;;7.25;64.90;101049.34;4394190;32;35572;-53
2020/12/18 03:30:43;;;;;;;34.88;17.00;;;;;;;7.05;65.44;101056.53;4406989;32;34146;-51
2020/12/18 03:33:10;;;;;;;35.50;16.08;;;;;;;7.18;64.57;101055.56;4394851;32;33211;-55
2020/12/18 03:35:40;;;;;;;40.33;16.35;;;;;;;7.38;64.04;101063.22;4406969;32;33644;-55
2020/12/18 03:38:07;;;;;;;34.38;16.70;;;;;;;7.02;65.40;101064.44;4406321;32;35720;-52
2020/12/18 03:40:34;;;;;;;33.30;16.02;;;;;;;7.23;63.92;101060.75;4404431;32;34355;-54
2020/12/18 03:43:03;;;;;;;31.20;15.93;;;;;;;6.96;65.12;101060.13;4407248;32;34213;-54
2020/12/18 03:45:31;;;;;;;35.25;16.30;;;;;;;7.15;64.51;101060.81;4405530;32;33688;-52
2020/12/18 03:48:00;;;;;;;36.30;16.58;;;;;;;7.40;63.43;101059.69;4422155;32;35771;-53
2020/12/18 03:50:29;;;;;;;36.38;16.30;;;;;;;7.15;64.30;101064.31;4392213;32;33333;-52
2020/12/18 03:53:04;;;;;;;34.30;16.33;;;;;;;7.14;64.83;101069.59;4392102;32;34061;-52
2020/12/18 03:55:35;;;;;;;33.30;15.20;;;;;;;7.12;64.91;101071.34;4407422;32;32769;-53
2020/12/18 03:58:05;;;;;;;30.27;13.95;;;;;;;7.15;64.68;101073.97;4407261;32;34783;-51
2020/12/18 04:00:38;;;;;;;;;;;;;;;7.33;63.60;101071.16;4400268;32;34790;-51
2020/12/18 04:03:08;;;;;;;35.55;14.32;;;;;;;7.29;63.33;101079.94;4403246;32;34166;-51
2020/12/18 04:05:35;;;;;;;30.95;14.30;;;;;;;7.17;63.85;101077.47;4390370;32;33602;-54
2020/12/18 04:08:05;;;;;;;31.70;14.65;;;;;;;6.89;64.58;101085.56;4392471;32;34729;-52
2020/12/18 04:10:35;;;;;;;33.05;13.57;;;;;;;6.71;65.68;101090.97;4405837;32;34132;-55
2020/12/18 04:13:04;;;;;;;30.48;14.48;;;;;;;6.63;65.73;101088.37;4406847;32;33232;-54
2020/12/18 04:15:34;;;;;;;24.10;11.18;;;;;;;6.91;64.62;101089.03;4405022;32;34032;-56
2020/12/18 04:18:02;;;;;;;25.05;12.10;;;;;;;7.13;63.40;101083.63;4407416;32;35053;-56
2020/12/18 04:20:29;;;;;;;25.00;12.50;;;;;;;7.27;62.75;101078.25;4405736;32;35179;-57
2020/12/18 04:23:00;;;;;;;22.70;12.20;;;;;;;7.08;63.30;101080.16;4406903;32;34310;-54
2020/12/18 04:25:29;;;;;;;25.48;11.45;;;;;;;7.03;64.02;101081.97;4405756;32;34031;-54
2020/12/18 04:27:56;;;;;;;24.42;12.32;;;;;;;7.08;63.46;101073.16;4404821;32;34838;-52
2020/12/18 04:30:23;;;;;;;22.95;11.25;;;;;;;6.93;63.95;101082.03;4406562;32;34111;-57
2020/12/18 04:32:50;;;;;;;22.00;10.32;;;;;;;6.89;64.02;101087.31;4405825;32;33258;-56
2020/12/18 04:35:18;;;;;;;23.00;11.15;;;;;;;7.13;63.45;101073.97;4392534;32;33686;-53
2020/12/18 04:37:46;;;;;;;23.98;10.82;;;;;;;7.28;62.88;101080.84;4393509;32;34971;-49
2020/12/18 04:40:17;;;;;;;18.48;10.07;;;;;;;6.86;64.23;101084.72;4408568;32;34347;-50
2020/12/18 04:42:45;;;;;;;25.37;12.55;;;;;;;7.03;63.88;101081.97;4407628;32;33235;-50
2020/12/18 04:45:13;;;;;;;28.65;12.70;;;;;;;6.77;64.83;101084.78;4407535;32;33813;-51
2020/12/18 04:47:48;;;;;;;23.67;11.48;;;;;;;6.68;65.61;101086.59;4395644;32;34845;-52
2020/12/18 04:50:15;;;;;;;27.33;12.90;;;;;;;7.03;64.31;101087.22;4407829;32;35196;-53
2020/12/18 04:52:46;;;;;;;25.08;11.15;;;;;;;7.03;64.72;101081.97;4408423;32;33274;-51
2020/12/18 04:55:16;;;;;;;25.33;11.02;;;;;;;7.05;64.59;101082.81;4406429;32;33634;-54
2020/12/18 04:57:52;;;;;;;25.40;12.52;;;;;;;7.10;64.40;101086.25;4408729;32;33369;-51
2020/12/18 05:00:24;;;;;;;30.88;12.27;;;;;;;6.72;66.06;101086.56;4406645;32;34223;-52
2020/12/18 05:03:00;;;;;;;28.65;12.98;;;;;;;6.98;65.23;101088.97;4395669;32;31620;-51
2020/12/18 05:05:28;;;;;;;30.62;12.98;;;;;;;7.08;64.81;101090.66;4407139;32;34741;-52
2020/12/18 05:07:56;;;;;;;33.63;13.65;;;;;;;6.72;66.06;101095.31;4406852;32;34767;-52
2020/12/18 05:10:23;;;;;;;32.38;14.85;;;;;;;6.93;65.45;101097.78;4407413;32;34158;-52
2020/12/18 05:12:53;;;;;;;29.77;12.65;;;;;;;6.78;66.33;101092.62;4394309;32;33625;-51
2020/12/18 05:15:22;;;;;;;26.12;12.70;;;;;;;7.00;65.10;101095.97;4408533;32;34423;-52
2020/12/18 05:18:13;;;;;;;26.87;12.05;;;;;;;7.00;64.97;101092.47;4393071;32;35765;-54
2020/12/18 05:20:41;;;;;;;30.98;14.70;;;;;;;6.84;65.59;101097.87;4385186;32;35052;-52
2020/12/18 05:23:10;;;;;;;28.15;13.13;;;;;;;6.61;66.58;101099.78;4401465;32;34345;-50
2020/12/18 05:25:46;;;;;;;33.58;15.80;;;;;;;6.62;66.82;101093.66;4402310;32;33708;-56
2020/12/18 05:28:21;;;;;;;29.77;14.13;;;;;;;6.84;65.50;101102.25;4413997;32;34801;-55
2020/12/18 05:30:54;;;;;;;31.70;13.52;;;;;;;6.71;65.90;101106.72;4401859;32;34941;-53
2020/12/18 05:33:26;;;;;;;27.67;14.63;;;;;;;6.62;66.77;101107.63;4413541;32;31985;-51
2020/12/18 05:35:56;;;;;;;28.55;13.32;;;;;;;6.86;65.80;101106.59;4413889;32;34572;-52
2020/12/18 05:38:24;;;;;;;28.15;12.80;;;;;;;6.87;65.93;101107.44;4400257;32;35818;-53
2020/12/18 05:40:58;;;;;;;28.95;13.05;;;;;;;6.97;65.52;101110.88;4399532;32;34613;-52
2020/12/18 05:43:37;;;;;;;26.05;12.35;;;;;;;6.72;66.44;101121.56;4401930;32;33122;-54
2020/12/18 05:46:26;;;;;;;23.30;11.93;;;;;;;6.94;64.86;101119.66;4401674;32;34281;-51
2020/12/18 05:48:54;;;;;;;24.15;11.55;;;;;;;7.18;63.30;101118.59;4388519;32;35878;-54
2020/12/18 05:51:41;;;;;;;24.52;11.20;;;;;;;7.00;63.60;101124.00;4398617;32;33871;-54
2020/12/18 05:54:21;;;;;;;25.05;12.60;;;;;;;6.85;64.59;101125.84;4373698;32;32873;-54
2020/12/18 05:56:53;;;;;;;24.10;10.40;;;;;;;7.12;63.44;101134.38;4398298;32;33250;-53
2020/12/18 05:59:20;;;;;;;22.85;10.77;;;;;;;7.08;63.37;101133.56;4398891;32;34173;-54
2020/12/18 06:01:50;;;;;;;23.85;11.57;;;;;;;6.75;64.49;101139.94;4385151;32;34393;-55
2020/12/18 06:04:27;;;;;;;24.85;10.90;;;;;;;6.96;64.09;101138.91;4384490;32;34000;-52
2020/12/18 06:06:57;;;;;;;27.55;11.43;;;;;;;6.85;64.44;101136.34;4397203;32;34432;-53
2020/12/18 06:09:28;;;;;;;26.33;11.68;;;;;;;6.45;65.66;101151.47;4394245;32;34698;-51
2020/12/18 06:11:58;;;;;;;29.92;13.30;;;;;;;6.66;65.48;101147.88;4395105;32;34174;-51
2020/12/18 06:14:25;;;;;;;26.37;11.90;;;;;;;6.80;64.90;101140.78;4395080;32;32620;-54
2020/12/18 06:16:53;;;;;;;26.00;12.15;;;;;;;6.94;64.10;101148.56;4398108;32;33718;-49
2020/12/18 06:19:22;;;;;;;27.55;11.57;;;;;;;6.99;64.14;101138.87;4399657;32;35439;-54
2020/12/18 06:21:58;;;;;;;26.55;12.75;;;;;;;6.85;64.89;101146.84;4403806;32;34257;-56
2020/12/18 06:24:45;;;;;;;27.25;12.48;;;;;;;7.11;63.94;101151.03;4396653;32;34085;-55
2020/12/18 06:27:17;;;;;;;27.50;13.07;;;;;;;7.26;63.43;101158.78;4387388;32;34559;-52
2020/12/18 06:29:46;;;;;;;33.03;14.20;;;;;;;7.24;63.39;101160.56;4387839;32;34677;-57
2020/12/18 06:32:23;;;;;;;28.38;13.20;;;;;;;6.99;64.45;101159.91;4380304;32;34860;-56
2020/12/18 06:34:55;;;;;;;35.78;15.70;;;;;;;6.98;64.53;101157.25;4392277;32;33341;-55
2020/12/18 06:37:30;;;;;;;29.98;14.07;;;;;;;6.96;64.66;101169.53;4393926;32;34352;-56
2020/12/18 06:40:01;;;;;;;37.42;16.70;;;;;;;6.82;65.18;101175.75;4398950;32;34978;-55
2020/12/18 06:42:38;;;;;;;38.42;15.60;;;;;;;6.88;65.10;101173.09;4383096;32;32777;-55
2020/12/18 06:45:09;;;;;;;33.60;14.45;;;;;;;7.06;64.58;101174.72;4397260;32;32876;-51
2020/12/18 06:47:43;;;;;;;37.35;15.50;;;;;;;6.86;65.06;101172.22;4422239;32;34664;-50
2020/12/18 06:50:16;;;;;;;;;;;;;;;6.50;67.04;101185.56;4417253;32;34244;-49
2020/12/18 06:52:53;;;;;;;42.03;15.73;;;;;;;6.46;67.28;101179.47;4406567;32;32923;-54
2020/12/18 06:55:29;;;;;;;37.20;14.57;;;;;;;6.79;65.75;101180.13;4405864;32;34169;-51
2020/12/18 06:58:08;;;;;;;31.52;14.85;;;;;;;6.65;66.63;101175.87;4407756;32;32719;-52
2020/12/18 07:00:43;;;;;;;40.03;15.90;;;;;;;7.04;65.05;101180.88;4405847;32;34776;-52
2020/12/18 07:03:35;;;;;;;32.92;14.35;;;;;;;6.92;65.19;101185.31;4407875;32;34160;-52
2020/12/18 07:06:10;;;;;;;36.00;15.80;;;;;;;7.04;64.78;101183.50;4406570;32;33226;-52
2020/12/18 07:08:42;;;;;;;34.25;15.35;;;;;;;7.17;64.30;101180.78;4406742;32;33649;-53
2020/12/18 07:11:11;;;;;;;32.73;14.53;;;;;;;6.78;65.65;101192.41;4406719;32;34614;-49
2020/12/18 07:13:42;;;;;;;30.25;13.10;;;;;;;6.72;65.30;101187.19;4407206;32;34812;-53
2020/12/18 07:16:11;;;;;;;32.42;14.20;;;;;;;6.79;65.57;101194.16;4404863;32;34182;-50
2020/12/18 07:18:40;;;;;;;34.85;14.05;;;;;;;6.71;65.92;101190.69;4404973;32;33671;-52
2020/12/18 07:21:12;;;;;;;33.72;14.80;;;;;;;6.77;65.90;101193.28;4407177;32;34846;-51
2020/12/18 07:23:47;;;;;;;32.60;13.93;;;;;;;6.74;66.03;101185.44;4406245;32;34146;-50
2020/12/18 07:26:16;;;;;;;30.05;13.70;;;;;;;6.76;65.87;101190.69;4404554;32;33922;-52
2020/12/18 07:28:44;;;;;;;28.90;13.10;;;;;;;6.53;66.44;101188.16;4392482;32;34920;-51
2020/12/18 07:31:22;;;;;;;33.85;12.85;;;;;;;6.65;66.24;101180.25;4387238;32;35373;-52
2020/12/18 07:33:54;;;;;;;30.23;14.23;;;;;;;6.75;65.70;101187.19;4406630;32;34363;-52
2020/12/18 07:36:24;;;;;;;34.50;14.33;;;;;;;6.36;67.14;101186.50;4392888;32;33628;-50
2020/12/18 07:38:57;;;;;;;33.30;15.15;;;;;;;6.46;67.14;101183.81;4406286;32;33448;-51
2020/12/18 07:41:26;;;;;;;34.17;14.75;;;;;;;6.54;66.99;101182.03;4406743;32;35789;-53
2020/12/18 07:44:05;;;;;;;32.38;14.48;;;;;;;6.35;67.18;101190.00;4389846;32;34883;-50
2020/12/18 07:46:38;;;;;;;35.90;15.50;;;;;;;6.25;67.63;101193.53;4396238;32;33973;-52
2020/12/18 07:49:11;;;;;;;32.78;14.05;;;;;;;6.19;68.13;101198.81;4393410;32;33619;-51
2020/12/18 07:51:40;;;;;;;29.45;13.68;;;;;;;6.30;67.51;101201.38;4405900;32;35665;-50
2020/12/18 07:54:16;;;;;;;31.25;14.55;;;;;;;6.02;69.05;101203.22;4386670;32;35100;-54
2020/12/18 07:56:44;;;;;;;39.10;15.27;;;;;;;6.03;69.44;101205.88;4404539;32;33456;-50
2020/12/18 07:59:12;;;;;;;37.33;16.25;;;;;;;6.18;68.60;101210.19;4380392;32;33592;-53
2020/12/18 08:01:40;;;;;;;36.10;14.23;;;;;;;6.13;69.15;101201.47;4405461;32;34802;-54
2020/12/18 08:04:12;;;;;;;38.22;15.10;;;;;;;6.31;68.43;101204.00;4403993;32;34186;-56
2020/12/18 08:06:43;;;;;;;36.17;15.95;;;;;;;6.37;68.18;101204.00;4405297;32;32611;-51
2020/12/18 08:09:12;;;;;;;32.55;14.98;;;;;;;6.74;66.38;101213.41;4413581;32;33907;-54
2020/12/18 08:11:42;;;;;;;36.65;15.13;;;;;;;6.46;67.50;101213.59;4400575;32;34781;-52
2020/12/18 08:14:10;;;;;;;36.10;15.40;;;;;;;6.50;67.47;101214.41;4403096;32;34060;-51
2020/12/18 08:16:38;;;;;;;38.13;17.85;;;;;;;6.78;66.26;101217.78;4409801;32;33242;-53
2020/12/18 08:19:07;;;;;;;35.67;15.35;;;;;;;6.70;66.46;101220.47;4397726;32;33836;-53
2020/12/18 08:21:40;;;;;;;34.67;14.48;;;;;;;6.39;67.42;101224.97;4398188;32;34629;-52
2020/12/18 08:24:35;;;;;;;34.35;15.52;;;;;;;6.67;66.30;101228.34;4394024;32;34245;-56
2020/12/18 08:27:11;;;;;;;36.65;14.90;;;;;;;6.76;65.51;101225.69;4391043;32;31554;-55
2020/12/18 08:29:40;;;;;;;33.75;13.98;;;;;;;6.83;65.03;101230.00;4393533;32;33610;-56
2020/12/18 08:32:08;;;;;;;30.12;13.50;;;;;;;6.52;66.58;101225.78;4408629;32;35734;-54
2020/12/18 08:34:35;;;;;;;32.58;14.65;;;;;;;6.39;67.24;101228.47;4391411;32;34361;-53
2020/12/18 08:37:03;;;;;;;31.30;14.23;;;;;;;5.85;69.13;101230.31;4400102;32;33579;-55
2020/12/18 08:39:32;;;;;;;31.83;14.65;;;;;;;6.06;68.47;101225.94;4376581;32;34418;-53
2020/12/18 08:42:00;;;;;;;31.80;13.85;;;;;;;6.36;67.70;101227.59;4383366;32;35619;-56
2020/12/18 08:44:35;;;;;;;32.25;15.02;;;;;;;6.13;67.99;101230.31;4384138;32;34990;-53
2020/12/18 08:47:02;;;;;;;27.60;13.45;;;;;;;6.11;68.07;101234.66;4387617;32;32899;-56
2020/12/18 08:49:36;;;;;;;31.27;15.45;;;;;;;6.50;66.58;101232.78;4382889;32;33799;-56
2020/12/18 08:52:04;;;;;;;32.83;15.90;;;;;;;6.68;65.57;101241.44;4380836;32;34486;-51
2020/12/18 08:54:34;;;;;;;36.70;16.00;;;;;;;6.38;66.58;101236.34;4388771;32;34632;-50
2020/12/18 08:57:15;;;;;;;33.17;15.65;;;;;;;6.41;66.61;101233.72;4389005;32;33335;-50
2020/12/18 08:59:57;;;;;;;33.15;14.90;;;;;;;6.49;66.32;101231.91;4390362;32;34699;-51
2020/12/18 09:02:28;;;;;;;36.05;16.58;;;;;;;6.57;65.70;101234.53;4376709;32;34764;-53
2020/12/18 09:05:28;;;;;;;32.97;16.87;;;;;;;6.40;66.72;101232.81;4373475;32;34158;-52
2020/12/18 09:07:57;;;;;;;28.58;14.35;;;;;;;6.60;66.12;101239.78;4390479;32;34043;-53
2020/12/18 09:10:34;;;;;;;33.20;15.38;;;;;;;6.47;66.75;101240.69;4376089;32;34318;-51
2020/12/18 09:13:21;;;;;;;33.90;15.68;;;;;;;6.47;66.85;101227.56;4386218;32;34588;-50
2020/12/18 09:16:00;;;;;;;35.83;15.38;;;;;;;6.34;67.20;101243.34;4390938;32;34162;-50
2020/12/18 09:18:29;;;;;;;33.75;16.50;;;;;;;6.34;66.87;101243.34;4383076;32;34320;-52
2020/12/18 09:21:12;;;;;;;25.55;12.88;;;;;;;6.49;66.45;101241.53;4388034;32;34467;-49
2020/12/18 09:23:40;;;;;;;;;;;;;;;6.37;66.61;101238.09;4386695;32;35051;-52
2020/12/18 09:26:24;;;;;;;25.50;12.20;;;;;;;6.30;67.44;101233.72;4379614;32;34816;-52
2020/12/18 09:28:51;;;;;;;32.20;15.18;;;;;;;6.45;66.82;101234.56;4386967;32;33520;-51
2020/12/18 09:31:18;;;;;;;30.73;13.90;;;;;;;6.56;66.32;101243.28;4393979;32;34422;-50
2020/12/18 09:33:46;;;;;;;28.67;13.40;;;;;;;6.50;66.20;101240.66;4389446;32;35171;-50
2020/12/18 09:36:15;;;;;;;28.10;13.77;;;;;;;6.43;65.96;101233.72;4384633;32;34407;-56
2020/12/18 09:38:47;;;;;;;28.12;13.40;;;;;;;6.30;66.97;101238.97;4393712;32;33323;-51
2020/12/18 09:41:15;;;;;;;;;;;;;;;6.39;66.75;101241.56;4407842;32;33371;-49
2020/12/18 09:43:45;;;;;;;25.83;11.70;;;;;;;6.31;67.13;101234.59;4400774;32;35184;-49
2020/12/18 09:46:12;;;;;;;36.65;16.23;;;;;;;6.30;67.21;101243.34;4395867;32;34397;-50
2020/12/18 09:48:44;;;;;;;33.72;13.75;;;;;;;6.18;67.39;101243.41;4389415;32;33965;-48
2020/12/18 09:51:13;;;;;;;28.20;13.20;;;;;;;6.09;67.83;101236.44;4396624;32;33713;-49
2020/12/18 09:53:43;;;;;;;29.55;14.77;;;;;;;6.10;67.80;101238.16;4396956;32;34741;-54
2020/12/18 09:56:11;;;;;;;34.05;14.35;;;;;;;6.14;67.89;101235.53;4407723;32;34242;-49
2020/12/18 09:58:39;;;;;;;37.38;16.15;;;;;;;6.14;68.12;101235.53;4405766;32;33273;-52
2020/12/18 10:01:06;;;;;;;32.17;13.35;;;;;;;6.07;68.14;101243.41;4394229;32;34360;-53
2020/12/18 10:03:36;;;;;;;36.15;15.77;;;;;;;6.05;68.20;101240.81;4393087;32;34764;-49
2020/12/18 10:06:03;;;;;;;29.60;12.98;;;;;;;6.07;68.42;101238.16;4394221;32;33825;-50
2020/12/18 10:08:33;;;;;;;31.48;14.50;;;;;;;6.11;67.52;101234.66;4407526;32;33392;-52
2020/12/18 10:11:00;;;;;;;31.35;14.30;;;;;;;5.87;68.30;101231.19;4402277;32;33823;-52
2020/12/18 10:13:28;;;;;;;31.50;12.57;;;;;;;5.94;68.25;101232.09;4406149;32;35253;-50
2020/12/18 10:15:55;;;;;;;33.15;14.13;;;;;;;5.97;68.31;101231.19;4393828;32;33968;-54
2020/12/18 10:18:22;;;;;;;33.53;14.75;;;;;;;5.80;68.87;101242.56;4387271;32;34044;-52
2020/12/18 10:20:49;;;;;;;34.15;13.45;;;;;;;5.75;68.83;101236.47;4403937;32;33731;-53
2020/12/18 10:23:19;;;;;;;24.73;10.70;;;;;;;5.88;68.56;101235.53;4392578;32;35957;-56
2020/12/18 10:25:57;;;;;;;23.48;11.00;;;;;;;5.81;68.18;101240.81;4405858;32;34376;-54
2020/12/18 10:28:25;;;;;;;29.30;12.93;;;;;;;5.84;68.92;101244.31;4405994;32;34305;-56
2020/12/18 10:30:54;;;;;;;29.08;12.32;;;;;;;5.92;68.47;101246.06;4403262;32;33471;-53
2020/12/18 10:33:22;;;;;;;29.98;13.93;;;;;;;5.90;68.96;101236.44;4405338;32;34915;-54
2020/12/18 10:35:49;;;;;;;27.55;11.85;;;;;;;5.98;68.38;101246.06;4393327;32;34406;-56
2020/12/18 10:38:16;;;;;;;27.55;12.15;;;;;;;6.20;67.54;101241.66;4393648;32;33485;-52
2020/12/18 10:40:44;;;;;;;30.12;13.75;;;;;;;6.24;67.07;101241.62;4406431;32;34130;-54
2020/12/18 10:43:12;;;;;;;31.85;14.95;;;;;;;6.43;66.65;101233.72;4363620;32;35598;-55
2020/12/18 10:45:42;;;;;;;32.03;14.38;;;;;;;6.56;66.09;101232.78;4407532;32;34528;-55
2020/12/18 10:48:09;;;;;;;24.65;12.30;;;;;;;6.48;66.83;101234.56;4398178;32;33488;-53
2020/12/18 10:50:37;;;;;;;29.33;13.35;;;;;;;6.41;67.01;101234.59;4406276;32;33960;-56
2020/12/18 10:53:05;;;;;;;24.55;12.18;;;;;;;6.48;67.12;101239.81;4406523;32;34854;-53
2020/12/18 10:55:33;;;;;;;27.58;11.85;;;;;;;6.59;66.50;101227.50;4402810;32;33981;-53
2020/12/18 10:58:00;;;;;;;29.83;14.60;;;;;;;6.71;66.59;101221.34;4406517;32;34057;-56
2020/12/18 11:00:28;;;;;;;25.23;11.18;;;;;;;6.55;67.20;101226.66;4418400;32;33519;-55
2020/12/18 11:02:55;;;;;;;23.95;11.18;;;;;;;6.82;66.05;101219.50;4421418;32;34688;-56
2020/12/18 11:05:22;;;;;;;25.88;12.75;;;;;;;6.78;66.01;101216.03;4406572;32;34259;-54
2020/12/18 11:07:49;;;;;;;28.35;14.18;;;;;;;6.85;65.44;101220.37;4398586;32;34027;-54
2020/12/18 11:10:23;;;;;;;29.27;13.15;;;;;;;6.86;66.11;101219.47;4420322;32;33471;-56
2020/12/18 11:12:50;;;;;;;30.40;12.68;;;;;;;6.92;66.01;101205.44;4401805;32;34388;-53
2020/12/18 11:15:17;;;;;;;25.00;12.25;;;;;;;6.52;67.10;101205.69;4414685;32;34031;-56
2020/12/18 11:17:46;;;;;;;30.83;13.13;;;;;;;6.28;68.50;101198.78;4390175;32;31841;-53
2020/12/18 11:20:13;;;;;;;24.75;11.18;;;;;;;6.38;67.63;101208.34;4400700;32;34597;-56
2020/12/18 11:22:42;;;;;;;23.90;12.37;;;;;;;6.88;65.99;101199.37;4421172;32;35518;-56
2020/12/18 11:25:10;;;;;;;23.52;12.15;;;;;;;6.99;65.49;101201.03;4419572;32;34337;-54
2020/12/18 11:27:37;;;;;;;25.75;12.35;;;;;;;7.14;65.10;101200.94;4421005;32;32892;-52
2020/12/18 11:30:04;;;;;;;27.00;12.37;;;;;;;7.14;65.11;101200.94;4407386;32;34179;-55
2020/12/18 11:32:34;;;;;;;25.20;12.30;;;;;;;7.42;63.80;101201.59;4408811;32;34596;-56
2020/12/18 11:35:01;;;;;;;27.27;11.02;;;;;;;7.33;64.15;101192.03;4405852;32;35125;-53